Time;durP1;ratioP1;P1;durP2;ratioP2;P2;SDS_P1;SDS_P2;PMS_P1;PMS_P2;Temp;Humidity;BMP_temperature;BMP_pressure;BME280_temperature;BME280_humidity;BME280_pressure;Samples;Min_cycle;Max_cycle;Signal;HPM_P1;HPM_P2
2021/08/10 00:00:28;;;;;;;7.30;5.00;;;;;;;39.32;19.19;94727.66;5078948;28;20612;-54
2021/08/10 00:02:55;;;;;;;6.97;5.60;;;;;;;39.09;19.38;94735.34;5095632;28;20047;-56
2021/08/10 00:05:23;;;;;;;9.07;5.43;;;;;;;39.20;19.62;94723.91;5086032;28;20040;-53
2021/08/10 00:07:51;;;;;;;6.43;5.00;;;;;;;39.14;19.75;94720.28;5090246;28;20356;-52
2021/08/10 00:10:18;;;;;;;7.88;5.50;;;;;;;38.88;19.79;94719.91;5075469;28;20048;-53
2021/08/10 00:12:45;;;;;;;6.28;5.40;;;;;;;39.18;19.62;94720.88;5077405;28;20044;-53
2021/08/10 00:15:12;;;;;;;6.95;5.43;;;;;;;39.10;19.44;94725.94;5075051;28;20044;-53
2021/08/10 00:17:39;;;;;;;6.72;5.20;;;;;;;39.03;19.50;94720.00;5089266;28;20043;-51
2021/08/10 00:20:08;;;;;;;6.03;5.43;;;;;;;39.02;19.83;94726.69;5093736;28;20056;-53
2021/08/10 00:22:35;;;;;;;7.93;5.22;;;;;;;38.76;20.12;94723.59;5074946;28;20045;-51
2021/08/10 00:25:02;;;;;;;7.65;5.18;;;;;;;38.92;20.12;94734.16;5075561;28;20077;-51
2021/08/10 00:27:29;;;;;;;7.40;5.25;;;;;;;38.70;19.97;94726.19;5074939;28;20044;-50
2021/08/10 00:29:56;;;;;;;6.28;5.18;;;;;;;38.92;20.19;94720.50;5075236;28;20048;-52
2021/08/10 00:32:23;;;;;;;5.53;5.03;;;;;;;38.82;19.94;94722.53;5085141;28;20040;-54
2021/08/10 00:34:53;;;;;;;6.57;5.15;;;;;;;38.66;20.07;94719.38;5081285;28;20043;-51
2021/08/10 00:37:20;;;;;;;8.97;5.80;;;;;;;38.41;20.29;94710.31;5086132;28;20063;-53
2021/08/10 00:39:53;;;;;;;6.20;5.18;;;;;;;38.53;20.26;94712.13;5073380;28;20474;-51
2021/08/10 00:42:21;;;;;;;6.45;5.30;;;;;;;38.28;20.74;94700.81;5087210;28;20374;-52
2021/08/10 00:44:48;;;;;;;7.03;5.50;;;;;;;38.22;20.89;94714.28;5094955;28;20036;-52
2021/08/10 00:47:16;;;;;;;7.53;5.25;;;;;;;38.24;20.96;94722.78;5076874;28;20382;-51
2021/08/10 00:49:43;;;;;;;5.70;5.10;;;;;;;38.25;20.69;94724.28;5089659;28;20048;-52
2021/08/10 00:52:12;;;;;;;6.22;5.55;;;;;;;38.37;20.40;94714.41;5073772;28;20075;-53
2021/08/10 00:54:40;;;;;;;6.30;5.38;;;;;;;38.25;20.58;94713.38;5082030;28;20052;-54
2021/08/10 00:57:09;;;;;;;6.72;5.25;;;;;;;38.16;20.68;94718.81;5073879;28;20340;-51
2021/08/10 00:59:39;;;;;;;6.18;5.57;;;;;;;38.17;20.84;94717.63;5072554;28;20052;-53
2021/08/10 01:02:09;;;;;;;6.63;5.38;;;;;;;38.26;21.01;94720.38;5074277;28;20044;-52
2021/08/10 01:04:37;;;;;;;6.45;5.05;;;;;;;38.20;20.58;94728.38;5078839;28;20044;-52
2021/08/10 01:07:34;;;;;;;6.82;5.07;;;;;;;38.06;21.14;94728.22;5085341;28;20476;-54
2021/08/10 01:10:10;;;;;;;6.30;5.28;;;;;;;38.14;20.77;94734.88;5074060;28;20383;-53
2021/08/10 01:12:44;;;;;;;6.53;5.47;;;;;;;38.08;21.08;94736.72;5084767;28;20055;-52
2021/08/10 01:15:19;;;;;;;6.25;5.60;;;;;;;38.31;20.39;94744.31;5089878;28;20056;-53
2021/08/10 01:17:57;;;;;;;6.82;5.40;;;;;;;36.75;22.27;94741.19;5057768;28;20296;-52
2021/08/10 01:20:52;;;;;;;6.95;5.75;;;;;;;37.54;21.52;94744.38;5072070;28;20379;-53
2021/08/10 01:23:24;;;;;;;5.90;5.03;;;;;;;38.08;20.87;94740.19;5075903;28;20044;-53
2021/08/10 01:26:29;;;;;;;6.80;5.18;;;;;;;38.20;20.31;94727.63;5056412;28;20044;-51
2021/08/10 01:29:21;;;;;;;8.10;5.85;;;;;;;37.96;20.51;94725.50;5088180;28;20055;-54
2021/08/10 01:31:51;;;;;;;6.75;5.20;;;;;;;37.98;20.39;94722.31;5055246;28;20041;-53
2021/08/10 01:34:39;;;;;;;7.93;5.63;;;;;;;38.23;20.40;94716.56;5057589;28;20078;-52
2021/08/10 01:37:28;;;;;;;8.38;5.07;;;;;;;38.17;20.02;94717.63;5072249;28;20060;-54
2021/08/10 01:40:03;;;;;;;8.02;5.20;;;;;;;38.12;19.93;94712.75;5063181;28;20051;-53
2021/08/10 01:42:38;;;;;;;6.07;4.95;;;;;;;38.19;20.45;94705.03;5091291;28;20044;-51
2021/08/10 01:45:07;;;;;;;7.15;4.97;;;;;;;38.17;19.94;94712.16;5061553;28;20064;-56
2021/08/10 01:47:35;;;;;;;5.30;4.80;;;;;;;38.06;20.26;94712.63;5072439;28;20053;-53
2021/08/10 01:50:06;;;;;;;5.70;5.18;;;;;;;38.15;20.48;94709.13;5072353;28;20048;-54
2021/08/10 01:52:35;;;;;;;5.60;5.00;;;;;;;38.43;20.04;94705.16;5058999;28;20044;-52
2021/08/10 01:55:08;;;;;;;6.35;4.32;;;;;;;38.21;20.00;94701.84;5057406;28;20044;-53
2021/08/10 01:57:38;;;;;;;5.80;4.80;;;;;;;38.14;20.49;94711.09;5083713;28;20055;-52
2021/08/10 02:00:07;;;;;;;5.57;4.88;;;;;;;38.13;20.51;94706.84;5076459;28;20088;-50
2021/08/10 02:02:44;;;;;;;5.93;4.72;;;;;;;38.14;20.32;94707.59;5071980;28;20454;-55
2021/08/10 02:05:23;;;;;;;6.65;4.85;;;;;;;38.17;20.31;94701.25;5043008;28;20045;-53
2021/08/10 02:07:53;;;;;;;5.85;4.80;;;;;;;38.14;20.32;94707.59;5073069;28;20336;-54
2021/08/10 02:10:20;;;;;;;5.57;5.00;;;;;;;38.21;20.33;94696.38;5084463;28;20481;-53
2021/08/10 02:12:49;;;;;;;7.18;5.50;;;;;;;38.06;20.39;94700.94;5075492;28;20048;-52
2021/08/10 02:15:17;;;;;;;6.53;5.15;;;;;;;37.87;20.41;94706.41;5088628;28;20382;-53
2021/08/10 02:17:52;;;;;;;10.40;5.32;;;;;;;37.84;21.04;94707.31;5085625;28;20374;-53
2021/08/10 02:20:32;;;;;;;8.20;5.03;;;;;;;37.84;20.74;94712.78;5073070;28;20057;-52
2021/08/10 02:22:59;;;;;;;6.28;4.68;;;;;;;37.65;21.20;94711.22;5075746;28;20055;-55
2021/08/10 02:25:27;;;;;;;5.55;4.95;;;;;;;37.59;21.14;94718.47;5072730;28;20041;-50
2021/08/10 02:28:06;;;;;;;8.57;5.13;;;;;;;37.65;21.04;94711.22;5086297;28;20732;-51
2021/08/10 02:30:36;;;;;;;5.90;5.30;;;;;;;37.75;20.62;94715.50;5092845;28;20048;-52
2021/08/10 02:33:07;;;;;;;6.15;4.95;;;;;;;37.62;20.74;94712.88;5093873;28;20052;-53
2021/08/10 02:35:39;;;;;;;6.75;5.10;;;;;;;37.79;20.52;94709.91;5091325;28;20040;-51
2021/08/10 02:38:09;;;;;;;6.85;4.97;;;;;;;37.54;20.51;94717.13;5077637;28;20508;-51
2021/08/10 02:40:41;;;;;;;8.18;5.25;;;;;;;37.58;20.51;94716.97;5076458;28;20055;-53
2021/08/10 02:43:10;;;;;;;7.63;5.75;;;;;;;37.72;21.07;94721.09;5080323;28;20063;-52
2021/08/10 02:45:37;;;;;;;6.18;5.28;;;;;;;37.45;21.04;94713.59;5077491;28;20044;-53
2021/08/10 02:48:05;;;;;;;8.07;5.20;;;;;;;37.55;20.57;94717.88;5091635;28;20047;-52
2021/08/10 02:50:35;;;;;;;8.43;5.15;;;;;;;37.25;21.04;94716.75;5094384;28;20044;-56
2021/08/10 02:53:06;;;;;;;8.63;5.75;;;;;;;37.02;21.28;94716.06;5080355;28;20063;-52
2021/08/10 02:55:41;;;;;;;8.20;5.47;;;;;;;37.11;21.01;94715.31;5075585;28;20362;-54
2021/08/10 02:58:18;;;;;;;8.77;5.72;;;;;;;37.33;20.83;94721.47;5076137;28;20040;-52
2021/08/10 03:01:06;;;;;;;6.03;5.20;;;;;;;37.27;21.33;94720.53;5093456;28;20040;-51
2021/08/10 03:03:35;;;;;;;5.63;5.07;;;;;;;37.48;20.95;94724.38;5078855;28;20059;-54
2021/08/10 03:06:06;;;;;;;6.20;4.70;;;;;;;37.42;21.00;94726.16;5091665;28;20048;-53
2021/08/10 03:08:35;;;;;;;9.88;5.18;;;;;;;37.69;20.46;94721.97;5074933;28;20052;-52
2021/08/10 03:11:04;;;;;;;8.75;5.25;;;;;;;37.58;20.60;94733.31;5075502;28;20474;-52
2021/08/10 03:13:37;;;;;;;7.32;5.05;;;;;;;37.69;20.71;94727.41;5074633;28;20059;-53
2021/08/10 03:16:05;;;;;;;6.43;5.63;;;;;;;37.56;20.51;94731.06;5061265;28;20443;-52
2021/08/10 03:18:35;;;;;;;6.72;5.60;;;;;;;37.43;20.77;94732.38;5075763;28;20049;-50
2021/08/10 03:21:04;;;;;;;8.85;6.15;;;;;;;37.38;21.01;94746.59;5082479;28;20043;-54
2021/08/10 03:23:36;;;;;;;10.30;5.72;;;;;;;37.45;20.69;94746.31;5074120;28;20062;-52
2021/08/10 03:26:04;;;;;;;10.52;5.75;;;;;;;37.52;21.09;94751.50;5095727;28;20044;-52
2021/08/10 03:28:33;;;;;;;8.70;5.63;;;;;;;37.31;21.31;94742.97;5078816;28;20044;-52
2021/08/10 03:31:01;;;;;;;7.15;5.70;;;;;;;37.20;21.58;94748.03;5076578;28;20044;-52
2021/08/10 03:33:29;;;;;;;8.35;5.35;;;;;;;37.32;21.03;94744.47;5074384;28;20071;-50
2021/08/10 03:35:58;;;;;;;6.70;5.72;;;;;;;37.37;20.76;94745.09;5069762;28;20055;-53
2021/08/10 03:38:29;;;;;;;11.00;6.10;;;;;;;37.25;21.38;94744.78;5079080;28;20055;-52
2021/08/10 03:40:56;;;;;;;8.57;5.95;;;;;;;37.48;21.06;94739.97;5095995;28;20055;-51
2021/08/10 03:43:23;;;;;;;9.63;5.95;;;;;;;37.22;21.52;94751.09;5073686;28;20048;-52
2021/08/10 03:45:52;;;;;;;9.20;6.07;;;;;;;37.23;21.40;94749.88;5058629;28;20040;-50
2021/08/10 03:48:21;;;;;;;10.30;6.78;;;;;;;37.22;21.40;94751.09;5064959;28;20056;-52
2021/08/10 03:50:50;;;;;;;8.48;6.20;;;;;;;37.16;21.11;94744.69;5076103;28;20048;-51
2021/08/10 03:53:21;;;;;;;6.80;5.85;;;;;;;37.12;21.52;94735.91;5084848;28;20055;-55
2021/08/10 03:55:50;;;;;;;8.93;5.72;;;;;;;37.28;21.14;94743.09;5074122;28;20052;-53
2021/08/10 03:58:24;;;;;;;7.85;5.90;;;;;;;37.31;21.54;94736.75;5072578;28;20044;-54
2021/08/10 04:00:53;;;;;;;11.52;5.70;;;;;;;37.19;21.31;94745.75;5078277;28;20047;-52
2021/08/10 04:03:21;;;;;;;10.93;6.13;;;;;;;37.42;21.11;94752.66;5082533;28;20052;-53
2021/08/10 04:05:51;;;;;;;10.13;6.57;;;;;;;37.38;21.38;94752.06;5074503;28;20044;-55
2021/08/10 04:08:18;;;;;;;10.40;6.03;;;;;;;37.41;21.31;94742.97;5075021;28;20056;-53
2021/08/10 04:10:47;;;;;;;18.88;6.30;;;;;;;37.61;21.03;94748.78;5074584;28;20051;-51
2021/08/10 04:13:20;;;;;;;11.90;6.32;;;;;;;37.86;21.62;94748.53;5065688;28;20048;-41
2021/08/10 04:15:50;;;;;;;12.00;5.90;;;;;;;38.62;20.36;94740.63;5082694;28;20059;-55
2021/08/10 04:18:22;;;;;;;12.32;6.57;;;;;;;38.79;20.58;94739.09;5087583;28;20366;-51
2021/08/10 04:20:52;;;;;;;11.00;6.57;;;;;;;39.22;20.07;94742.56;5094148;28;20048;-59
2021/08/10 04:23:20;;;;;;;9.63;6.35;;;;;;;39.31;19.78;94745.28;5090323;28;20051;-53
2021/08/10 04:25:47;;;;;;;8.65;5.68;;;;;;;39.33;19.75;94746.31;5111378;28;20040;-57
2021/08/10 04:28:14;;;;;;;10.25;6.10;;;;;;;39.43;19.71;94747.78;5082868;28;20335;-61
2021/08/10 04:30:42;;;;;;;11.25;6.30;;;;;;;39.33;19.39;94756.50;5074464;28;20040;-58
2021/08/10 04:33:10;;;;;;;13.15;6.28;;;;;;;39.39;19.39;94757.38;5084191;28;20036;-58
2021/08/10 04:35:38;;;;;;;10.45;5.82;;;;;;;39.40;19.67;94761.63;5094275;28;20492;-50
2021/08/10 04:38:05;;;;;;;11.43;6.22;;;;;;;39.73;19.44;94756.88;5081982;28;20056;-67
2021/08/10 04:40:34;;;;;;;11.32;5.78;;;;;;;39.80;19.55;94763.22;5079547;28;20462;-64
2021/08/10 04:43:10;;;;;;;8.73;6.20;;;;;;;39.96;18.98;94768.31;5092585;28;20063;-73
2021/08/10 04:45:41;;;;;;;11.02;6.32;;;;;;;40.11;18.76;94777.31;5088459;28;20040;-62
2021/08/10 04:48:09;;;;;;;9.75;6.63;;;;;;;40.16;18.90;94767.69;5092798;28;20054;-62
2021/08/10 04:50:37;;;;;;;10.10;6.65;;;;;;;40.19;18.60;94772.25;5090734;28;20336;-62
2021/08/10 04:53:06;;;;;;;9.25;6.25;;;;;;;40.01;18.55;94767.66;5084876;28;20390;-63
2021/08/10 04:55:33;;;;;;;9.52;6.43;;;;;;;39.84;18.90;94770.03;5073153;28;20048;-64
2021/08/10 04:58:00;;;;;;;8.68;6.95;;;;;;;39.83;19.03;94773.25;5073844;28;20036;-61
2021/08/10 05:00:31;;;;;;;7.93;6.00;;;;;;;38.95;19.83;94785.16;5073795;28;20055;-60
2021/08/10 05:02:58;;;;;;;9.38;5.95;;;;;;;38.62;20.62;94779.63;5080989;28;20044;-61
2021/08/10 05:05:25;;;;;;;7.90;6.53;;;;;;;38.35;20.58;94780.41;5093692;28;20044;-62
2021/08/10 05:07:55;;;;;;;9.25;5.88;;;;;;;38.36;20.57;94783.88;5093825;28;20500;-64
2021/08/10 05:10:22;;;;;;;10.43;6.47;;;;;;;38.82;20.52;94784.59;5095374;28;20044;-62
2021/08/10 05:12:52;;;;;;;7.53;6.63;;;;;;;38.38;20.42;94793.13;5093230;28;20048;-62
2021/08/10 05:15:22;;;;;;;8.65;6.70;;;;;;;38.65;20.06;94788.88;5093693;28;20134;-64
2021/08/10 05:17:51;;;;;;;8.65;5.80;;;;;;;38.64;19.90;94787.38;5093587;28;20051;-59
2021/08/10 05:20:18;;;;;;;9.32;6.10;;;;;;;38.74;19.76;94792.34;5093652;28;20051;-58
2021/08/10 05:22:47;;;;;;;7.88;5.68;;;;;;;38.58;20.17;94789.19;5076130;28;20048;-62
2021/08/10 05:25:14;;;;;;;9.82;5.70;;;;;;;38.62;19.77;94784.31;5077347;28;20452;-60
2021/08/10 05:27:43;;;;;;;7.47;5.55;;;;;;;38.75;19.56;94787.63;5078170;28;20050;-62
2021/08/10 05:30:10;;;;;;;7.85;5.45;;;;;;;38.58;19.63;94779.00;5094822;28;20055;-58
2021/08/10 05:32:38;;;;;;;7.25;5.13;;;;;;;38.56;19.29;94778.72;5092757;28;20056;-59
2021/08/10 05:35:05;;;;;;;8.77;5.63;;;;;;;38.78;19.14;94776.56;5094272;28;20044;-59
2021/08/10 05:37:33;;;;;;;8.80;5.70;;;;;;;38.90;19.56;94768.63;5092784;28;20051;-62
2021/08/10 05:40:01;;;;;;;7.65;5.20;;;;;;;38.88;19.54;94766.38;5094710;28;20293;-56
2021/08/10 05:42:31;;;;;;;6.68;4.53;;;;;;;39.06;19.21;94763.59;5092850;28;20040;-61
2021/08/10 05:44:59;;;;;;;8.93;5.63;;;;;;;39.04;19.30;94768.00;5092963;28;20043;-59
2021/08/10 05:47:26;;;;;;;8.68;5.05;;;;;;;39.42;18.63;94767.38;5093267;28;20040;-63
2021/08/10 05:49:55;;;;;;;7.22;4.97;;;;;;;39.26;18.67;94775.94;5093921;28;20043;-64
2021/08/10 05:52:22;;;;;;;8.63;5.35;;;;;;;39.73;18.42;94781.50;5093373;28;20050;-62
2021/08/10 05:54:49;;;;;;;5.63;5.05;;;;;;;39.71;18.60;94778.47;5093980;28;20040;-63
2021/08/10 05:57:17;;;;;;;5.43;4.50;;;;;;;39.70;18.33;94782.44;5093865;28;20446;-63
2021/08/10 05:59:44;;;;;;;5.85;4.75;;;;;;;40.18;17.76;94776.19;5093571;28;20466;-63
2021/08/10 06:02:11;;;;;;;9.05;5.70;;;;;;;40.04;18.03;94783.13;5092735;28;20062;-60
2021/08/10 06:04:38;;;;;;;7.05;5.35;;;;;;;40.67;17.24;94783.84;5093387;28;20047;-62
2021/08/10 06:07:07;;;;;;;9.07;4.45;;;;;;;40.58;17.80;94792.13;5092351;28;20354;-61
2021/08/10 06:09:42;;;;;;;6.55;4.60;;;;;;;40.79;17.32;94793.00;5097294;28;20402;-64
2021/08/10 06:12:12;;;;;;;6.60;4.63;;;;;;;40.86;17.31;94801.66;5097371;28;20055;-61
2021/08/10 06:14:40;;;;;;;9.10;5.40;;;;;;;40.83;17.70;94796.34;5096993;28;20052;-63
2021/08/10 06:17:08;;;;;;;10.77;5.40;;;;;;;41.07;17.17;94798.97;5078794;28;20048;-57
2021/08/10 06:19:35;;;;;;;9.57;5.60;;;;;;;41.25;17.18;94796.03;5077648;28;20049;-60
2021/08/10 06:22:02;;;;;;;7.25;5.13;;;;;;;41.20;16.94;94793.94;5075794;28;20478;-64
2021/08/10 06:24:33;;;;;;;7.30;4.72;;;;;;;41.72;16.48;94786.00;5076967;28;20056;-57
2021/08/10 06:27:00;;;;;;;10.88;5.53;;;;;;;41.70;16.56;94793.97;5093950;28;20466;-60
2021/08/10 06:29:28;;;;;;;7.85;5.50;;;;;;;41.72;16.52;94791.50;5097218;28;20048;-61
2021/08/10 06:32:01;;;;;;;8.77;5.22;;;;;;;41.51;16.36;94791.44;5096738;28;20051;-59
2021/08/10 06:34:29;;;;;;;7.43;5.60;;;;;;;41.72;16.48;94791.50;5096981;28;20047;-63
2021/08/10 06:36:56;;;;;;;7.97;5.50;;;;;;;42.14;15.75;94783.56;5091880;28;20067;-63
2021/08/10 06:39:25;;;;;;;8.52;5.57;;;;;;;41.91;16.21;94792.75;5077449;28;20048;-63
2021/08/10 06:41:57;;;;;;;8.90;5.53;;;;;;;42.02;15.79;94786.63;5075864;28;20048;-60
2021/08/10 06:44:30;;;;;;;6.55;5.00;;;;;;;42.40;15.75;94783.56;5077252;28;20048;-62
2021/08/10 06:47:04;;;;;;;7.47;5.25;;;;;;;42.64;15.48;94786.09;5076974;28;20036;-64
2021/08/10 06:49:34;;;;;;;7.03;5.63;;;;;;;42.68;15.14;94783.13;5076322;28;20374;-61
2021/08/10 06:52:04;;;;;;;5.60;4.97;;;;;;;42.77;15.56;94782.97;5076103;28;20040;-63
2021/08/10 06:54:36;;;;;;;6.88;5.20;;;;;;;42.50;15.67;94780.72;5076362;28;20362;-61
2021/08/10 06:57:07;;;;;;;7.65;5.72;;;;;;;42.86;15.13;94780.03;5076805;28;20370;-61
2021/08/10 06:59:37;;;;;;;7.97;5.30;;;;;;;42.86;15.16;94773.78;5076321;28;20051;-60
2021/08/10 07:02:06;;;;;;;12.55;5.53;;;;;;;43.32;14.91;94774.44;5075848;28;20443;-58
2021/08/10 07:04:35;;;;;;;11.40;5.13;;;;;;;43.27;15.12;94775.16;5075238;28;20055;-62
2021/08/10 07:07:04;;;;;;;5.78;5.20;;;;;;;43.42;14.77;94774.25;5075043;28;20059;-58
2021/08/10 07:09:35;;;;;;;7.13;5.93;;;;;;;43.65;14.53;94775.88;5075987;28;20474;-57
2021/08/10 07:12:04;;;;;;;7.18;4.75;;;;;;;43.77;14.46;94777.47;5075188;28;20455;-59
2021/08/10 07:14:35;;;;;;;7.75;5.00;;;;;;;44.13;14.06;94764.13;5085711;28;20059;-57
2021/08/10 07:17:04;;;;;;;6.55;4.80;;;;;;;44.36;13.88;94773.97;5095229;28;20051;-58
2021/08/10 07:19:34;;;;;;;5.97;4.85;;;;;;;44.25;14.10;94768.44;5094300;28;20048;-57
2021/08/10 07:22:02;;;;;;;6.25;5.38;;;;;;;44.70;13.83;94771.28;5075527;28;20074;-62
2021/08/10 07:24:33;;;;;;;7.82;5.00;;;;;;;44.81;13.70;94765.78;5076839;28;20045;-63
2021/08/10 07:27:01;;;;;;;7.00;5.13;;;;;;;44.11;14.07;94763.88;5075367;28;20045;-59
2021/08/10 07:29:32;;;;;;;5.20;4.65;;;;;;;44.53;13.58;94763.75;5076252;28;20040;-58
2021/08/10 07:32:02;;;;;;;5.32;4.82;;;;;;;44.68;13.55;94762.75;5074598;28;20481;-60
2021/08/10 07:34:48;;;;;;;8.50;5.20;;;;;;;45.27;13.56;94764.53;5075943;28;20052;-64
2021/08/10 07:37:16;;;;;;;6.18;4.88;;;;;;;44.96;13.33;94760.78;5075072;28;20063;-64
2021/08/10 07:39:44;;;;;;;6.35;4.93;;;;;;;44.90;13.36;94762.78;5075105;28;20056;-63
2021/08/10 07:42:11;;;;;;;9.23;5.90;;;;;;;45.25;13.24;94765.03;5076247;28;20052;-63
2021/08/10 07:44:38;;;;;;;9.60;5.13;;;;;;;45.18;13.15;94758.00;5075058;28;20370;-63
2021/08/10 07:47:06;;;;;;;7.25;5.00;;;;;;;45.46;13.04;94757.22;5077989;28;20049;-61
2021/08/10 07:49:37;;;;;;;5.50;4.95;;;;;;;45.62;12.65;94770.28;5076384;28;20439;-62
2021/08/10 07:52:05;;;;;;;7.25;5.30;;;;;;;45.66;12.45;94770.75;5091804;28;20327;-63
2021/08/10 07:54:33;;;;;;;6.03;4.97;;;;;;;45.39;12.25;94760.53;5074923;28;20044;-62
2021/08/10 07:57:00;;;;;;;5.65;4.70;;;;;;;45.54;12.14;94758.22;5074772;28;20059;-62
2021/08/10 07:59:28;;;;;;;6.65;4.65;;;;;;;45.86;12.56;94760.66;5074264;28;20040;-64
2021/08/10 08:01:55;;;;;;;6.20;5.03;;;;;;;45.55;12.70;94765.25;5075819;28;20362;-61
2021/08/10 08:04:23;;;;;;;8.25;4.68;;;;;;;45.84;12.20;94757.66;5095346;28;20055;-63
2021/08/10 08:06:51;;;;;;;6.75;4.47;;;;;;;45.75;12.38;94766.97;5093957;28;20362;-63
2021/08/10 08:09:18;;;;;;;9.00;4.78;;;;;;;46.20;12.43;94756.50;5096118;28;20052;-64
2021/08/10 08:11:46;;;;;;;6.55;4.90;;;;;;;46.03;12.41;94750.31;5094999;28;20044;-62
2021/08/10 08:14:16;;;;;;;7.93;5.00;;;;;;;46.44;12.33;94753.13;5089648;28;20044;-60
2021/08/10 08:16:43;;;;;;;8.23;4.75;;;;;;;46.02;12.34;94746.03;5078789;28;20359;-62
2021/08/10 08:19:10;;;;;;;5.88;4.43;;;;;;;46.27;12.16;94750.44;5074003;28;20049;-63
2021/08/10 08:21:38;;;;;;;9.05;4.88;;;;;;;46.24;12.38;94756.22;5074979;28;20060;-59
2021/08/10 08:24:06;;;;;;;8.52;5.50;;;;;;;45.88;12.66;94752.63;5074694;28;20470;-61
2021/08/10 08:26:33;;;;;;;7.03;4.63;;;;;;;46.23;12.43;94746.44;5085139;28;20052;-60
2021/08/10 08:29:02;;;;;;;5.38;4.35;;;;;;;46.16;12.21;94756.03;5094577;28;20036;-61
2021/08/10 08:31:29;;;;;;;6.40;4.60;;;;;;;46.37;11.70;94742.59;5092958;28;20044;-59
2021/08/10 08:34:04;;;;;;;6.53;4.50;;;;;;;46.62;11.99;94746.22;5094087;28;20048;-63
2021/08/10 08:36:32;;;;;;;6.25;4.35;;;;;;;46.65;12.06;94742.44;5094003;28;20047;-62
2021/08/10 08:38:59;;;;;;;5.85;4.80;;;;;;;46.75;11.82;94738.09;5091002;28;20455;-58
2021/08/10 08:41:27;;;;;;;7.78;4.45;;;;;;;47.02;11.90;94741.16;5074070;28;20044;-62
2021/08/10 08:43:55;;;;;;;7.40;4.55;;;;;;;46.20;11.84;94739.94;5073439;28;20044;-63
2021/08/10 08:46:23;;;;;;;8.38;4.72;;;;;;;46.57;11.84;94733.91;5074222;28;20052;-63
2021/08/10 08:48:52;;;;;;;6.20;4.35;;;;;;;46.59;11.47;94730.66;5074270;28;20055;-61
2021/08/10 08:51:24;;;;;;;5.53;4.18;;;;;;;46.74;11.24;94735.81;5072976;28;20055;-63
2021/08/10 08:53:54;;;;;;;5.35;4.30;;;;;;;47.01;11.50;94734.88;5058038;28;20055;-56
2021/08/10 08:56:25;;;;;;;6.65;4.30;;;;;;;46.58;11.46;94723.63;5072944;28;20463;-58
2021/08/10 08:58:56;;;;;;;10.65;7.53;;;;;;;46.51;11.65;94713.88;5073494;28;20422;-60
2021/08/10 09:01:24;;;;;;;6.35;4.57;;;;;;;46.59;11.34;94722.38;5072768;28;20055;-64
2021/08/10 09:03:52;;;;;;;5.50;4.28;;;;;;;46.74;11.15;94724.75;5073510;28;20053;-58
2021/08/10 09:06:21;;;;;;;4.22;3.80;;;;;;;46.90;11.21;94710.09;5087832;28;20047;-64
2021/08/10 09:08:55;;;;;;;6.63;4.15;;;;;;;47.10;11.41;94717.16;5093148;28;20055;-64
2021/08/10 09:11:24;;;;;;;7.65;4.30;;;;;;;46.63;10.95;94709.03;5073784;28;20044;-61
2021/08/10 09:14:01;;;;;;;4.75;3.88;;;;;;;47.04;10.78;94710.94;5077536;28;20052;-63
2021/08/10 09:16:32;;;;;;;4.00;3.60;;;;;;;47.27;10.73;94703.94;5093955;28;20447;-63
2021/08/10 09:19:00;;;;;;;6.22;3.63;;;;;;;47.36;10.84;94698.06;5080019;28;20352;-62
2021/08/10 09:21:28;;;;;;;4.97;3.70;;;;;;;47.37;10.61;94702.34;5073290;28;20438;-63
2021/08/10 09:24:12;;;;;;;6.95;3.30;;;;;;;47.28;10.37;94699.91;5073761;28;20049;-65
2021/08/10 09:26:43;;;;;;;10.23;9.20;;;;;;;47.41;10.17;94697.25;5073554;28;20052;-62
2021/08/10 09:29:21;;;;;;;10.60;7.00;;;;;;;47.42;10.19;94701.53;5091831;28;20078;-63
2021/08/10 09:31:53;;;;;;;6.65;5.80;;;;;;;47.32;10.46;94689.31;5092674;28;20059;-63
2021/08/10 09:34:22;;;;;;;6.05;4.18;;;;;;;47.76;10.03;94687.31;5093859;28;20052;-59
2021/08/10 09:36:52;;;;;;;7.32;4.13;;;;;;;47.73;10.11;94682.81;5093257;28;20473;-62
2021/08/10 09:39:33;;;;;;;6.25;4.10;;;;;;;47.79;10.31;94687.00;5093591;28;20051;-61
2021/08/10 09:42:13;;;;;;;5.95;3.88;;;;;;;47.29;9.84;94684.81;5093392;28;20377;-64
2021/08/10 09:44:57;;;;;;;5.57;3.60;;;;;;;47.83;10.08;94673.59;5093315;28;20043;-64
2021/08/10 09:47:34;;;;;;;4.43;3.40;;;;;;;48.15;10.29;94682.03;5091518;28;20049;-63
2021/08/10 09:50:01;;;;;;;5.75;3.50;;;;;;;47.47;10.03;94677.81;5093260;28;20044;-62
2021/08/10 09:52:32;;;;;;;7.07;3.97;;;;;;;47.56;10.18;94669.94;5092422;28;20466;-61
2021/08/10 09:55:29;;;;;;;4.97;3.97;;;;;;;46.96;10.83;94670.03;5092530;28;20051;-61
2021/08/10 09:58:01;;;;;;;7.68;7.00;;;;;;;46.66;11.00;94674.81;5077237;28;20062;-62
2021/08/10 10:00:41;;;;;;;6.13;5.18;;;;;;;47.16;10.76;94666.09;5087932;28;20044;-63
2021/08/10 10:03:16;;;;;;;6.72;4.10;;;;;;;46.66;10.65;94669.28;5073046;28;20055;-59
2021/08/10 10:05:46;;;;;;;5.25;3.45;;;;;;;46.87;10.71;94662.09;5086693;22;20040;-59
2021/08/10 10:08:25;;;;;;;5.30;3.40;;;;;;;46.79;10.66;94660.38;5058639;28;20061;-60
2021/08/10 10:10:57;;;;;;;5.68;3.70;;;;;;;46.90;10.40;94661.06;5054401;28;20044;-64
2021/08/10 10:13:29;;;;;;;4.28;3.28;;;;;;;47.00;10.79;94658.69;5064385;28;20045;-56
2021/08/10 10:15:56;;;;;;;3.80;3.33;;;;;;;46.54;10.74;94659.56;5065885;28;20052;-63
2021/08/10 10:18:26;;;;;;;4.90;3.55;;;;;;;47.11;10.75;94652.28;5060598;28;20390;-63
2021/08/10 10:20:53;;;;;;;4.57;4.17;;;;;;;46.45;10.82;94665.44;5054600;28;20463;-69
2021/08/10 10:23:26;;;;;;;4.05;3.45;;;;;;;47.04;10.94;94650.84;5073839;28;20044;-65
2021/08/10 10:25:54;;;;;;;5.43;3.80;;;;;;;47.58;9.69;94650.78;5073043;28;20057;-58
2021/08/10 10:28:22;;;;;;;8.10;3.90;;;;;;;47.14;9.78;94654.06;5061345;28;20045;-62
2021/08/10 10:30:49;;;;;;;4.95;3.95;;;;;;;46.81;10.61;94647.53;5054171;28;20068;-63
2021/08/10 10:33:17;;;;;;;5.82;3.47;;;;;;;47.19;10.68;94656.00;5054254;28;20045;-67
2021/08/10 10:35:45;;;;;;;5.72;3.83;;;;;;;47.24;10.17;94650.41;5053178;28;20454;-56
2021/08/10 10:38:14;;;;;;;4.78;3.40;;;;;;;47.34;10.12;94636.94;5054698;28;20049;-59
2021/08/10 10:40:41;;;;;;;3.97;3.53;;;;;;;46.90;10.12;94636.16;5052481;28;20057;-61
2021/08/10 10:43:08;;;;;;;3.80;3.10;;;;;;;47.25;10.15;94637.31;5053193;28;20044;-57
2021/08/10 10:45:39;;;;;;;4.97;3.78;;;;;;;47.24;10.25;94621.97;5052483;28;20049;-58
2021/08/10 10:48:29;;;;;;;4.78;3.78;;;;;;;46.99;10.27;94630.28;5052736;28;20037;-60
2021/08/10 10:51:03;;;;;;;;;;;;;;;47.63;9.81;94634.59;5044283;28;20056;-62
2021/08/10 10:53:30;;;;;;;5.18;3.45;;;;;;;47.50;9.75;94633.25;5054150;28;19920;-59
2021/08/10 10:55:58;;;;;;;4.45;3.20;;;;;;;47.93;9.75;94631.72;5057479;28;20079;-58
2021/08/10 10:58:27;;;;;;;4.60;3.85;;;;;;;47.15;10.18;94638.94;5057397;28;20049;-59
2021/08/10 11:01:29;;;;;;;5.50;3.47;;;;;;;47.69;10.13;94633.28;5074643;28;20049;-58
2021/08/10 11:04:06;;;;;;;6.75;3.50;;;;;;;47.17;10.39;94628.09;5025529;28;20055;-60
2021/08/10 11:06:34;;;;;;;4.85;3.20;;;;;;;46.88;10.66;94624.88;5076129;28;20051;-59
2021/08/10 11:09:03;;;;;;;4.43;3.30;;;;;;;47.05;10.43;94621.16;5061240;28;20048;-62
2021/08/10 11:11:52;;;;;;;4.68;3.35;;;;;;;46.85;10.61;94619.63;5057068;28;20048;-57
2021/08/10 11:14:37;;;;;;;6.75;3.28;;;;;;;47.37;10.57;94619.31;5056510;28;20047;-60
2021/08/10 11:17:11;;;;;;;6.80;3.58;;;;;;;46.92;10.90;94624.56;5055949;28;20045;-58
2021/08/10 11:19:43;;;;;;;5.90;3.75;;;;;;;47.02;10.54;94628.47;5062728;28;20051;-57
2021/08/10 11:22:28;;;;;;;6.05;3.40;;;;;;;47.25;10.37;94620.72;5076315;28;20044;-60
2021/08/10 11:25:02;;;;;;;5.15;3.40;;;;;;;47.37;10.61;94613.78;5076995;28;20060;-60
2021/08/10 11:27:29;;;;;;;5.30;3.30;;;;;;;46.98;10.71;94616.97;5076310;28;20051;-60
2021/08/10 11:29:56;;;;;;;7.47;3.20;;;;;;;47.34;10.56;94612.03;5076623;28;20059;-59
2021/08/10 11:32:37;;;;;;;4.40;2.97;;;;;;;47.24;10.59;94613.69;5075959;28;20051;-61
2021/08/10 11:35:32;;;;;;;4.05;3.30;;;;;;;46.87;10.63;94609.53;5076470;28;20473;-58
2021/08/10 11:38:16;;;;;;;4.35;3.10;;;;;;;46.87;10.50;94606.03;5075964;28;20057;-61
2021/08/10 11:40:54;;;;;;;5.07;3.33;;;;;;;47.24;10.29;94599.84;5076006;28;20048;-63
2021/08/10 11:43:33;;;;;;;6.10;3.40;;;;;;;47.06;10.48;94603.28;5076124;28;20064;-60
2021/08/10 11:46:02;;;;;;;6.07;3.80;;;;;;;46.46;11.08;94600.59;5076295;28;20048;-59
2021/08/10 11:49:04;;;;;;;5.28;3.38;;;;;;;46.82;10.89;94598.50;5066436;28;20052;-61
2021/08/10 11:51:38;;;;;;;4.28;3.63;;;;;;;46.91;10.60;94593.41;5014353;28;20045;-58